sensor_id;sensor_type;location;lat;lon;timestamp;temperature;humidity
41924;DHT22;27613;48.116;11.656;2023-02-01T00:01:26;3.50;94.50
41924;DHT22;27613;48.116;11.656;2023-02-01T00:03:52;3.50;94.40
41924;DHT22;27613;48.116;11.656;2023-02-01T00:06:18;3.60;94.30
41924;DHT22;27613;48.116;11.656;2023-02-01T00:08:43;3.60;94.20
41924;DHT22;27613;48.116;11.656;2023-02-01T00:11:11;3.60;94.20
41924;DHT22;27613;48.116;11.656;2023-02-01T00:13:39;3.60;94.10
41924;DHT22;27613;48.116;11.656;2023-02-01T00:16:10;3.60;94.00
41924;DHT22;27613;48.116;11.656;2023-02-01T00:18:37;3.60;93.90
41924;DHT22;27613;48.116;11.656;2023-02-01T00:21:03;3.70;93.80
41924;DHT22;27613;48.116;11.656;2023-02-01T00:23:32;3.60;93.70
41924;DHT22;27613;48.116;11.656;2023-02-01T00:26:03;3.70;93.50
41924;DHT22;27613;48.116;11.656;2023-02-01T00:28:29;3.70;93.70
41924;DHT22;27613;48.116;11.656;2023-02-01T00:30:59;3.70;93.60
41924;DHT22;27613;48.116;11.656;2023-02-01T00:33:26;3.70;93.70
41924;DHT22;27613;48.116;11.656;2023-02-01T00:35:59;3.70;93.50
41924;DHT22;27613;48.116;11.656;2023-02-01T00:38:26;3.70;93.50
41924;DHT22;27613;48.116;11.656;2023-02-01T00:40:52;3.70;93.90
41924;DHT22;27613;48.116;11.656;2023-02-01T00:43:17;3.70;93.70
41924;DHT22;27613;48.116;11.656;2023-02-01T00:45:44;3.60;94.10
41924;DHT22;27613;48.116;11.656;2023-02-01T00:48:10;3.70;94.20
41924;DHT22;27613;48.116;11.656;2023-02-01T00:50:35;3.60;95.40
41924;DHT22;27613;48.116;11.656;2023-02-01T00:53:01;3.50;96.20
41924;DHT22;27613;48.116;11.656;2023-02-01T00:55:26;3.40;98.70
41924;DHT22;27613;48.116;11.656;2023-02-01T00:57:52;3.20;99.90
41924;DHT22;27613;48.116;11.656;2023-02-01T01:00:17;3.10;99.90
41924;DHT22;27613;48.116;11.656;2023-02-01T01:02:43;2.90;99.90
41924;DHT22;27613;48.116;11.656;2023-02-01T01:05:09;2.80;99.90
41924;DHT22;27613;48.116;11.656;2023-02-01T01:07:34;2.70;99.90
41924;DHT22;27613;48.116;11.656;2023-02-01T01:10:00;2.60;99.90
41924;DHT22;27613;48.116;11.656;2023-02-01T01:12:25;2.50;99.90
41924;DHT22;27613;48.116;11.656;2023-02-01T01:14:51;2.50;99.90
41924;DHT22;27613;48.116;11.656;2023-02-01T01:17:17;2.50;99.90
41924;DHT22;27613;48.116;11.656;2023-02-01T01:19:42;2.60;99.90
41924;DHT22;27613;48.116;11.656;2023-02-01T01:22:08;2.60;99.90
41924;DHT22;27613;48.116;11.656;2023-02-01T01:24:33;2.50;99.90
41924;DHT22;27613;48.116;11.656;2023-02-01T01:26:59;2.50;99.90
41924;DHT22;27613;48.116;11.656;2023-02-01T01:29:24;2.60;99.90
41924;DHT22;27613;48.116;11.656;2023-02-01T01:31:50;2.60;99.90
41924;DHT22;27613;48.116;11.656;2023-02-01T01:34:15;2.60;99.90
41924;DHT22;27613;48.116;11.656;2023-02-01T01:36:41;2.60;99.90
41924;DHT22;27613;48.116;11.656;2023-02-01T01:39:06;2.60;99.90
41924;DHT22;27613;48.116;11.656;2023-02-01T01:41:32;2.70;99.90
41924;DHT22;27613;48.116;11.656;2023-02-01T01:44:04;2.60;99.90
41924;DHT22;27613;48.116;11.656;2023-02-01T01:46:34;2.60;99.90
41924;DHT22;27613;48.116;11.656;2023-02-01T01:49:07;2.50;99.90
41924;DHT22;27613;48.116;11.656;2023-02-01T01:51:38;2.60;99.90
41924;DHT22;27613;48.116;11.656;2023-02-01T01:54:11;2.50;99.90
41924;DHT22;27613;48.116;11.656;2023-02-01T01:56:39;2.50;99.90
41924;DHT22;27613;48.116;11.656;2023-02-01T01:59:06;2.50;99.90
41924;DHT22;27613;48.116;11.656;2023-02-01T02:01:32;2.50;99.90
41924;DHT22;27613;48.116;11.656;2023-02-01T02:03:58;2.40;99.90
41924;DHT22;27613;48.116;11.656;2023-02-01T02:06:41;2.40;99.90
41924;DHT22;27613;48.116;11.656;2023-02-01T02:09:10;2.40;99.90
41924;DHT22;27613;48.116;11.656;2023-02-01T02:11:36;2.40;99.90
41924;DHT22;27613;48.116;11.656;2023-02-01T02:14:03;2.40;99.90
41924;DHT22;27613;48.116;11.656;2023-02-01T02:19:40;2.30;99.90
41924;DHT22;27613;48.116;11.656;2023-02-01T02:28:12;2.40;99.90
41924;DHT22;27613;48.116;11.656;2023-02-01T02:33:35;2.50;99.90
41924;DHT22;27613;48.116;11.656;2023-02-01T02:41:36;2.50;99.90
41924;DHT22;27613;48.116;11.656;2023-02-01T02:50:27;2.70;99.90
41924;DHT22;27613;48.116;11.656;2023-02-01T02:53:33;2.70;99.90
41924;DHT22;27613;48.116;11.656;2023-02-01T02:56:21;2.60;99.90
41924;DHT22;27613;48.116;11.656;2023-02-01T02:59:09;2.60;99.90
41924;DHT22;27613;48.116;11.656;2023-02-01T03:01:54;2.70;99.90
41924;DHT22;27613;48.116;11.656;2023-02-01T03:04:38;2.70;99.90
41924;DHT22;27613;48.116;11.656;2023-02-01T03:07:42;2.70;99.90
41924;DHT22;27613;48.116;11.656;2023-02-01T03:09:58;2.70;99.90
41924;DHT22;27613;48.116;11.656;2023-02-01T03:12:29;2.70;99.90
41924;DHT22;27613;48.116;11.656;2023-02-01T03:15:15;2.70;99.90
41924;DHT22;27613;48.116;11.656;2023-02-01T03:17:42;2.70;99.90
41924;DHT22;27613;48.116;11.656;2023-02-01T03:20:11;2.70;99.90
41924;DHT22;27613;48.116;11.656;2023-02-01T03:22:41;2.80;99.90
41924;DHT22;27613;48.116;11.656;2023-02-01T03:25:12;2.80;99.90
41924;DHT22;27613;48.116;11.656;2023-02-01T03:27:48;2.90;99.90
41924;DHT22;27613;48.116;11.656;2023-02-01T03:30:27;2.90;99.90
41924;DHT22;27613;48.116;11.656;2023-02-01T03:33:00;2.90;99.90
41924;DHT22;27613;48.116;11.656;2023-02-01T03:35:41;2.90;99.90
41924;DHT22;27613;48.116;11.656;2023-02-01T03:38:17;2.90;99.90
41924;DHT22;27613;48.116;11.656;2023-02-01T03:40:48;3.00;99.90
41924;DHT22;27613;48.116;11.656;2023-02-01T03:43:18;3.00;99.90
41924;DHT22;27613;48.116;11.656;2023-02-01T03:45:49;2.90;99.90
41924;DHT22;27613;48.116;11.656;2023-02-01T03:48:16;3.00;99.90
41924;DHT22;27613;48.116;11.656;2023-02-01T03:50:49;3.00;99.90
41924;DHT22;27613;48.116;11.656;2023-02-01T03:53:18;3.00;99.90
41924;DHT22;27613;48.116;11.656;2023-02-01T03:55:45;3.00;99.90
41924;DHT22;27613;48.116;11.656;2023-02-01T03:58:15;3.00;99.90
41924;DHT22;27613;48.116;11.656;2023-02-01T04:00:45;3.00;99.90
41924;DHT22;27613;48.116;11.656;2023-02-01T04:03:11;3.00;99.90
41924;DHT22;27613;48.116;11.656;2023-02-01T04:05:37;3.00;99.90
41924;DHT22;27613;48.116;11.656;2023-02-01T04:08:03;3.10;99.90
41924;DHT22;27613;48.116;11.656;2023-02-01T04:10:30;3.10;99.90
41924;DHT22;27613;48.116;11.656;2023-02-01T04:12:55;3.10;99.90
41924;DHT22;27613;48.116;11.656;2023-02-01T04:15:21;3.10;99.90
41924;DHT22;27613;48.116;11.656;2023-02-01T04:17:46;3.10;99.90
41924;DHT22;27613;48.116;11.656;2023-02-01T04:20:12;3.10;99.90
41924;DHT22;27613;48.116;11.656;2023-02-01T04:22:38;3.10;99.90
41924;DHT22;27613;48.116;11.656;2023-02-01T04:25:03;3.20;99.90
41924;DHT22;27613;48.116;11.656;2023-02-01T04:27:31;3.10;99.90
41924;DHT22;27613;48.116;11.656;2023-02-01T04:29:56;3.20;99.90
41924;DHT22;27613;48.116;11.656;2023-02-01T04:32:22;3.20;99.90
41924;DHT22;27613;48.116;11.656;2023-02-01T04:34:48;3.10;99.90
41924;DHT22;27613;48.116;11.656;2023-02-01T04:37:13;3.30;99.90
41924;DHT22;27613;48.116;11.656;2023-02-01T04:39:39;3.20;99.90
41924;DHT22;27613;48.116;11.656;2023-02-01T04:42:04;3.20;99.90
41924;DHT22;27613;48.116;11.656;2023-02-01T04:44:30;3.20;99.90
41924;DHT22;27613;48.116;11.656;2023-02-01T04:46:56;3.20;99.90
41924;DHT22;27613;48.116;11.656;2023-02-01T04:49:21;3.20;99.90
41924;DHT22;27613;48.116;11.656;2023-02-01T04:51:47;3.10;99.90
41924;DHT22;27613;48.116;11.656;2023-02-01T04:54:13;3.20;99.90
41924;DHT22;27613;48.116;11.656;2023-02-01T04:56:39;3.10;99.90
41924;DHT22;27613;48.116;11.656;2023-02-01T04:59:05;3.20;99.90
41924;DHT22;27613;48.116;11.656;2023-02-01T05:01:31;3.20;99.90
41924;DHT22;27613;48.116;11.656;2023-02-01T05:03:57;3.10;99.90
41924;DHT22;27613;48.116;11.656;2023-02-01T05:06:22;3.10;99.90
41924;DHT22;27613;48.116;11.656;2023-02-01T05:08:48;3.10;99.90
41924;DHT22;27613;48.116;11.656;2023-02-01T05:11:14;3.20;99.90
41924;DHT22;27613;48.116;11.656;2023-02-01T05:13:59;3.20;99.90
41924;DHT22;27613;48.116;11.656;2023-02-01T05:16:26;3.20;99.90
41924;DHT22;27613;48.116;11.656;2023-02-01T05:18:52;3.20;99.90
41924;DHT22;27613;48.116;11.656;2023-02-01T05:21:18;3.20;99.90
41924;DHT22;27613;48.116;11.656;2023-02-01T05:23:43;3.20;99.90
41924;DHT22;27613;48.116;11.656;2023-02-01T05:26:28;3.20;99.90
41924;DHT22;27613;48.116;11.656;2023-02-01T05:28:54;3.20;99.90
41924;DHT22;27613;48.116;11.656;2023-02-01T05:31:20;3.20;99.90
41924;DHT22;27613;48.116;11.656;2023-02-01T05:33:45;3.20;99.90
41924;DHT22;27613;48.116;11.656;2023-02-01T05:36:11;3.20;99.90
41924;DHT22;27613;48.116;11.656;2023-02-01T05:38:36;3.20;99.90
41924;DHT22;27613;48.116;11.656;2023-02-01T05:41:02;3.20;99.90
41924;DHT22;27613;48.116;11.656;2023-02-01T05:43:27;3.20;99.90
41924;DHT22;27613;48.116;11.656;2023-02-01T05:45:53;3.20;99.90
41924;DHT22;27613;48.116;11.656;2023-02-01T05:48:19;3.20;99.90
41924;DHT22;27613;48.116;11.656;2023-02-01T05:50:45;3.10;99.90
41924;DHT22;27613;48.116;11.656;2023-02-01T05:53:11;3.20;99.90
41924;DHT22;27613;48.116;11.656;2023-02-01T05:55:37;3.20;99.90
41924;DHT22;27613;48.116;11.656;2023-02-01T05:58:03;3.20;99.90
41924;DHT22;27613;48.116;11.656;2023-02-01T06:00:29;3.20;99.90
41924;DHT22;27613;48.116;11.656;2023-02-01T06:02:54;3.20;99.90
41924;DHT22;27613;48.116;11.656;2023-02-01T06:05:20;3.20;99.90
41924;DHT22;27613;48.116;11.656;2023-02-01T06:07:46;3.20;99.90
41924;DHT22;27613;48.116;11.656;2023-02-01T06:10:12;3.30;99.90
41924;DHT22;27613;48.116;11.656;2023-02-01T06:12:37;3.30;99.90
41924;DHT22;27613;48.116;11.656;2023-02-01T06:15:03;3.30;99.90
41924;DHT22;27613;48.116;11.656;2023-02-01T06:17:29;3.20;99.90
41924;DHT22;27613;48.116;11.656;2023-02-01T06:19:54;3.20;99.90
41924;DHT22;27613;48.116;11.656;2023-02-01T06:22:20;3.20;99.90
41924;DHT22;27613;48.116;11.656;2023-02-01T06:24:47;3.20;99.90
41924;DHT22;27613;48.116;11.656;2023-02-01T06:27:13;3.20;99.90
41924;DHT22;27613;48.116;11.656;2023-02-01T06:29:38;3.20;99.90
41924;DHT22;27613;48.116;11.656;2023-02-01T06:32:04;3.20;99.90
41924;DHT22;27613;48.116;11.656;2023-02-01T06:34:29;3.20;99.90
41924;DHT22;27613;48.116;11.656;2023-02-01T06:36:55;3.20;99.90
41924;DHT22;27613;48.116;11.656;2023-02-01T06:39:20;3.30;99.90
41924;DHT22;27613;48.116;11.656;2023-02-01T06:41:49;3.30;99.90
41924;DHT22;27613;48.116;11.656;2023-02-01T06:44:15;3.30;99.90
41924;DHT22;27613;48.116;11.656;2023-02-01T06:46:41;3.20;99.90
41924;DHT22;27613;48.116;11.656;2023-02-01T06:49:07;3.20;99.90
41924;DHT22;27613;48.116;11.656;2023-02-01T06:51:33;3.20;99.90
41924;DHT22;27613;48.116;11.656;2023-02-01T06:54:00;3.20;99.90
41924;DHT22;27613;48.116;11.656;2023-02-01T06:56:26;3.30;99.90
41924;DHT22;27613;48.116;11.656;2023-02-01T06:58:52;3.30;99.90
41924;DHT22;27613;48.116;11.656;2023-02-01T07:01:18;3.40;99.90
41924;DHT22;27613;48.116;11.656;2023-02-01T07:03:50;3.40;99.90
41924;DHT22;27613;48.116;11.656;2023-02-01T07:06:19;3.40;99.90
41924;DHT22;27613;48.116;11.656;2023-02-01T07:08:44;3.40;99.90
41924;DHT22;27613;48.116;11.656;2023-02-01T07:11:13;3.40;99.90
41924;DHT22;27613;48.116;11.656;2023-02-01T07:13:39;3.40;99.90
41924;DHT22;27613;48.116;11.656;2023-02-01T07:16:10;3.40;99.90
41924;DHT22;27613;48.116;11.656;2023-02-01T07:18:36;3.40;99.90
41924;DHT22;27613;48.116;11.656;2023-02-01T07:21:02;3.40;99.90
41924;DHT22;27613;48.116;11.656;2023-02-01T07:23:27;3.40;99.90
41924;DHT22;27613;48.116;11.656;2023-02-01T07:25:55;3.40;99.90
41924;DHT22;27613;48.116;11.656;2023-02-01T07:28:21;3.40;99.90
41924;DHT22;27613;48.116;11.656;2023-02-01T07:30:46;3.40;99.90
41924;DHT22;27613;48.116;11.656;2023-02-01T07:33:20;3.50;99.90
41924;DHT22;27613;48.116;11.656;2023-02-01T07:35:47;3.50;99.90
41924;DHT22;27613;48.116;11.656;2023-02-01T07:38:13;3.50;99.90
41924;DHT22;27613;48.116;11.656;2023-02-01T07:40:39;3.50;99.90
41924;DHT22;27613;48.116;11.656;2023-02-01T07:43:05;3.50;99.90
41924;DHT22;27613;48.116;11.656;2023-02-01T07:45:34;3.60;99.90
41924;DHT22;27613;48.116;11.656;2023-02-01T07:48:00;3.60;99.90
41924;DHT22;27613;48.116;11.656;2023-02-01T07:50:27;3.60;99.90
41924;DHT22;27613;48.116;11.656;2023-02-01T07:52:53;3.60;99.90
41924;DHT22;27613;48.116;11.656;2023-02-01T07:55:21;3.60;99.90
41924;DHT22;27613;48.116;11.656;2023-02-01T07:57:47;3.60;99.90
41924;DHT22;27613;48.116;11.656;2023-02-01T08:00:13;3.60;99.90
41924;DHT22;27613;48.116;11.656;2023-02-01T08:02:59;3.70;99.90
41924;DHT22;27613;48.116;11.656;2023-02-01T08:05:24;3.80;99.90
41924;DHT22;27613;48.116;11.656;2023-02-01T08:07:51;3.70;99.90
41924;DHT22;27613;48.116;11.656;2023-02-01T08:10:17;3.70;99.90
41924;DHT22;27613;48.116;11.656;2023-02-01T08:12:43;3.80;99.90
41924;DHT22;27613;48.116;11.656;2023-02-01T08:15:13;3.80;99.90
41924;DHT22;27613;48.116;11.656;2023-02-01T08:17:39;3.90;99.90
41924;DHT22;27613;48.116;11.656;2023-02-01T08:20:05;4.00;99.90
41924;DHT22;27613;48.116;11.656;2023-02-01T08:22:32;4.00;99.90
41924;DHT22;27613;48.116;11.656;2023-02-01T08:24:57;4.00;99.70
41924;DHT22;27613;48.116;11.656;2023-02-01T08:27:26;4.00;99.40
41924;DHT22;27613;48.116;11.656;2023-02-01T08:29:52;4.10;98.90
41924;DHT22;27613;48.116;11.656;2023-02-01T08:32:19;4.00;99.30
41924;DHT22;27613;48.116;11.656;2023-02-01T08:34:45;4.00;99.20
41924;DHT22;27613;48.116;11.656;2023-02-01T08:37:10;4.10;98.70
41924;DHT22;27613;48.116;11.656;2023-02-01T08:39:36;4.10;98.30
41924;DHT22;27613;48.116;11.656;2023-02-01T08:42:02;4.10;98.20
41924;DHT22;27613;48.116;11.656;2023-02-01T08:44:45;4.10;98.00
41924;DHT22;27613;48.116;11.656;2023-02-01T08:47:12;4.20;97.60
41924;DHT22;27613;48.116;11.656;2023-02-01T08:49:37;4.30;97.10
41924;DHT22;27613;48.116;11.656;2023-02-01T08:52:03;4.40;96.80
41924;DHT22;27613;48.116;11.656;2023-02-01T08:54:29;4.40;96.60
41924;DHT22;27613;48.116;11.656;2023-02-01T08:56:54;4.50;96.20
41924;DHT22;27613;48.116;11.656;2023-02-01T08:59:21;4.50;95.80
41924;DHT22;27613;48.116;11.656;2023-02-01T09:01:47;4.60;95.50
41924;DHT22;27613;48.116;11.656;2023-02-01T09:04:12;4.60;95.60
41924;DHT22;27613;48.116;11.656;2023-02-01T09:06:40;4.60;95.50
41924;DHT22;27613;48.116;11.656;2023-02-01T09:09:06;4.70;95.20
41924;DHT22;27613;48.116;11.656;2023-02-01T09:11:32;4.60;94.90
41924;DHT22;27613;48.116;11.656;2023-02-01T09:13:57;4.70;94.90
41924;DHT22;27613;48.116;11.656;2023-02-01T09:16:23;4.70;94.30
41924;DHT22;27613;48.116;11.656;2023-02-01T09:18:48;4.70;94.40
41924;DHT22;27613;48.116;11.656;2023-02-01T09:21:14;4.70;94.20
41924;DHT22;27613;48.116;11.656;2023-02-01T09:23:39;4.80;94.10
41924;DHT22;27613;48.116;11.656;2023-02-01T09:26:05;4.80;94.10
41924;DHT22;27613;48.116;11.656;2023-02-01T09:28:32;4.90;94.00
41924;DHT22;27613;48.116;11.656;2023-02-01T09:30:58;4.90;93.80
41924;DHT22;27613;48.116;11.656;2023-02-01T09:33:26;5.10;93.60
41924;DHT22;27613;48.116;11.656;2023-02-01T09:36:03;5.20;93.60
41924;DHT22;27613;48.116;11.656;2023-02-01T09:38:29;5.10;93.50
41924;DHT22;27613;48.116;11.656;2023-02-01T09:40:55;5.20;93.50
41924;DHT22;27613;48.116;11.656;2023-02-01T09:48:38;5.30;93.10
41924;DHT22;27613;48.116;11.656;2023-02-01T09:51:13;5.30;93.30
41924;DHT22;27613;48.116;11.656;2023-02-01T09:53:46;5.30;93.20
41924;DHT22;27613;48.116;11.656;2023-02-01T09:56:21;5.30;93.10
41924;DHT22;27613;48.116;11.656;2023-02-01T09:59:17;5.40;93.10
41924;DHT22;27613;48.116;11.656;2023-02-01T10:01:44;5.40;92.90
41924;DHT22;27613;48.116;11.656;2023-02-01T10:04:13;5.30;93.20
41924;DHT22;27613;48.116;11.656;2023-02-01T10:07:00;5.30;93.10
41924;DHT22;27613;48.116;11.656;2023-02-01T10:23:16;5.20;93.60
41924;DHT22;27613;48.116;11.656;2023-02-01T10:25:59;5.20;93.10
41924;DHT22;27613;48.116;11.656;2023-02-01T10:28:27;5.20;93.00
41924;DHT22;27613;48.116;11.656;2023-02-01T10:30:57;5.20;93.10
41924;DHT22;27613;48.116;11.656;2023-02-01T10:33:26;5.30;93.00
41924;DHT22;27613;48.116;11.656;2023-02-01T10:35:58;5.30;92.90
41924;DHT22;27613;48.116;11.656;2023-02-01T10:38:29;5.30;92.90
41924;DHT22;27613;48.116;11.656;2023-02-01T10:41:00;5.30;93.00
41924;DHT22;27613;48.116;11.656;2023-02-01T10:43:27;5.10;93.00
41924;DHT22;27613;48.116;11.656;2023-02-01T10:45:52;5.10;93.30
41924;DHT22;27613;48.116;11.656;2023-02-01T10:48:18;5.20;93.50
41924;DHT22;27613;48.116;11.656;2023-02-01T10:50:59;5.20;93.40
41924;DHT22;27613;48.116;11.656;2023-02-01T10:56:24;5.40;93.20
41924;DHT22;27613;48.116;11.656;2023-02-01T10:58:50;5.30;93.40
41924;DHT22;27613;48.116;11.656;2023-02-01T11:01:20;5.30;93.40
41924;DHT22;27613;48.116;11.656;2023-02-01T11:04:00;5.20;93.50
41924;DHT22;27613;48.116;11.656;2023-02-01T11:06:38;5.20;93.90
41924;DHT22;27613;48.116;11.656;2023-02-01T11:11:33;5.10;93.70
41924;DHT22;27613;48.116;11.656;2023-02-01T11:14:19;5.00;94.00
41924;DHT22;27613;48.116;11.656;2023-02-01T11:16:53;4.90;94.10
41924;DHT22;27613;48.116;11.656;2023-02-01T11:19:19;5.00;94.50
41924;DHT22;27613;48.116;11.656;2023-02-01T11:21:49;5.00;94.20
41924;DHT22;27613;48.116;11.656;2023-02-01T11:24:24;5.20;94.00
41924;DHT22;27613;48.116;11.656;2023-02-01T11:26:55;5.30;93.60
41924;DHT22;27613;48.116;11.656;2023-02-01T11:29:21;5.40;93.40
41924;DHT22;27613;48.116;11.656;2023-02-01T11:31:56;5.50;93.30
41924;DHT22;27613;48.116;11.656;2023-02-01T11:34:47;5.30;93.50
41924;DHT22;27613;48.116;11.656;2023-02-01T11:37:31;5.30;93.60
41924;DHT22;27613;48.116;11.656;2023-02-01T11:40:01;5.10;93.80
41924;DHT22;27613;48.116;11.656;2023-02-01T11:42:28;5.00;94.70
41924;DHT22;27613;48.116;11.656;2023-02-01T11:45:20;4.90;94.60
41924;DHT22;27613;48.116;11.656;2023-02-01T11:47:52;4.90;94.20
41924;DHT22;27613;48.116;11.656;2023-02-01T11:50:25;4.90;94.90
41924;DHT22;27613;48.116;11.656;2023-02-01T11:55:56;4.90;94.50
41924;DHT22;27613;48.116;11.656;2023-02-01T12:04:01;4.70;94.70
41924;DHT22;27613;48.116;11.656;2023-02-01T12:09:37;4.80;94.80
41924;DHT22;27613;48.116;11.656;2023-02-01T12:28:57;4.90;94.40
41924;DHT22;27613;48.116;11.656;2023-02-01T12:31:55;4.90;94.20
41924;DHT22;27613;48.116;11.656;2023-02-01T12:37:06;4.70;94.50
41924;DHT22;27613;48.116;11.656;2023-02-01T12:39:46;4.60;94.50
41924;DHT22;27613;48.116;11.656;2023-02-01T12:42:18;4.50;94.50
41924;DHT22;27613;48.116;11.656;2023-02-01T12:44:55;4.50;94.30
41924;DHT22;27613;48.116;11.656;2023-02-01T12:47:48;4.60;94.30
41924;DHT22;27613;48.116;11.656;2023-02-01T12:50:28;4.50;94.40
41924;DHT22;27613;48.116;11.656;2023-02-01T12:53:15;4.50;94.20
41924;DHT22;27613;48.116;11.656;2023-02-01T12:56:16;4.50;94.00
41924;DHT22;27613;48.116;11.656;2023-02-01T12:58:50;4.60;94.20
41924;DHT22;27613;48.116;11.656;2023-02-01T13:01:56;4.60;93.80
41924;DHT22;27613;48.116;11.656;2023-02-01T13:04:33;4.60;93.20
41924;DHT22;27613;48.116;11.656;2023-02-01T13:09:51;4.70;93.00
41924;DHT22;27613;48.116;11.656;2023-02-01T13:12:52;4.70;92.60
41924;DHT22;27613;48.116;11.656;2023-02-01T13:15:29;4.70;92.60
41924;DHT22;27613;48.116;11.656;2023-02-01T13:18:00;4.70;92.50
41924;DHT22;27613;48.116;11.656;2023-02-01T13:23:10;4.90;92.50
41924;DHT22;27613;48.116;11.656;2023-02-01T13:28:16;4.90;92.80
41924;DHT22;27613;48.116;11.656;2023-02-01T13:30:55;4.80;92.90
41924;DHT22;27613;48.116;11.656;2023-02-01T13:39:56;4.90;93.50
41924;DHT22;27613;48.116;11.656;2023-02-01T13:42:02;4.80;93.80
41924;DHT22;27613;48.116;11.656;2023-02-01T13:44:33;4.90;93.70
41924;DHT22;27613;48.116;11.656;2023-02-01T13:47:02;5.00;93.90
41924;DHT22;27613;48.116;11.656;2023-02-01T13:49:31;5.00;94.10
41924;DHT22;27613;48.116;11.656;2023-02-01T13:51:58;5.10;94.10
41924;DHT22;27613;48.116;11.656;2023-02-01T13:54:29;5.10;94.10
41924;DHT22;27613;48.116;11.656;2023-02-01T13:56:55;5.10;94.20
41924;DHT22;27613;48.116;11.656;2023-02-01T13:59:49;5.10;94.40
41924;DHT22;27613;48.116;11.656;2023-02-01T14:02:45;4.90;94.70
41924;DHT22;27613;48.116;11.656;2023-02-01T14:08:10;4.80;95.40
41924;DHT22;27613;48.116;11.656;2023-02-01T14:10:57;4.80;95.30
41924;DHT22;27613;48.116;11.656;2023-02-01T14:23:45;4.60;95.90
41924;DHT22;27613;48.116;11.656;2023-02-01T14:26:19;4.60;96.00
41924;DHT22;27613;48.116;11.656;2023-02-01T14:28:53;4.60;95.50
41924;DHT22;27613;48.116;11.656;2023-02-01T14:34:39;4.60;95.30
41924;DHT22;27613;48.116;11.656;2023-02-01T14:37:11;4.60;95.30
41924;DHT22;27613;48.116;11.656;2023-02-01T14:42:42;4.50;94.80
41924;DHT22;27613;48.116;11.656;2023-02-01T14:55:53;4.50;94.20
41924;DHT22;27613;48.116;11.656;2023-02-01T15:01:06;4.40;94.00
41924;DHT22;27613;48.116;11.656;2023-02-01T15:03:51;4.40;94.00
41924;DHT22;27613;48.116;11.656;2023-02-01T15:06:40;4.40;94.10
41924;DHT22;27613;48.116;11.656;2023-02-01T15:09:20;4.40;93.90
41924;DHT22;27613;48.116;11.656;2023-02-01T15:14:28;4.40;94.10
41924;DHT22;27613;48.116;11.656;2023-02-01T15:16:54;4.40;94.30
41924;DHT22;27613;48.116;11.656;2023-02-01T15:19:22;4.40;94.30
41924;DHT22;27613;48.116;11.656;2023-02-01T15:21:50;4.40;94.40
41924;DHT22;27613;48.116;11.656;2023-02-01T15:26:49;4.40;95.30
41924;DHT22;27613;48.116;11.656;2023-02-01T15:29:15;4.30;95.10
41924;DHT22;27613;48.116;11.656;2023-02-01T15:31:47;4.30;95.60
41924;DHT22;27613;48.116;11.656;2023-02-01T15:34:13;4.20;96.50
41924;DHT22;27613;48.116;11.656;2023-02-01T15:36:40;4.10;96.70
41924;DHT22;27613;48.116;11.656;2023-02-01T15:41:50;4.00;97.60
41924;DHT22;27613;48.116;11.656;2023-02-01T15:44:38;3.90;97.80
41924;DHT22;27613;48.116;11.656;2023-02-01T15:47:16;3.90;98.20
41924;DHT22;27613;48.116;11.656;2023-02-01T15:49:44;3.80;99.30
41924;DHT22;27613;48.116;11.656;2023-02-01T15:54:56;3.70;99.90
41924;DHT22;27613;48.116;11.656;2023-02-01T15:57:29;3.70;99.90
41924;DHT22;27613;48.116;11.656;2023-02-01T16:00:00;3.70;99.90
41924;DHT22;27613;48.116;11.656;2023-02-01T16:02:35;3.70;99.90
41924;DHT22;27613;48.116;11.656;2023-02-01T16:05:04;3.70;99.90
41924;DHT22;27613;48.116;11.656;2023-02-01T16:07:33;3.70;99.90
41924;DHT22;27613;48.116;11.656;2023-02-01T16:10:01;3.60;99.90
41924;DHT22;27613;48.116;11.656;2023-02-01T16:12:44;3.60;99.90
41924;DHT22;27613;48.116;11.656;2023-02-01T16:15:10;3.60;99.90
41924;DHT22;27613;48.116;11.656;2023-02-01T16:17:35;3.60;99.90
41924;DHT22;27613;48.116;11.656;2023-02-01T16:20:01;3.60;99.90
41924;DHT22;27613;48.116;11.656;2023-02-01T16:22:26;3.60;99.90
41924;DHT22;27613;48.116;11.656;2023-02-01T16:24:52;3.60;99.90
41924;DHT22;27613;48.116;11.656;2023-02-01T16:27:18;3.60;99.90
41924;DHT22;27613;48.116;11.656;2023-02-01T16:29:43;3.60;99.60
41924;DHT22;27613;48.116;11.656;2023-02-01T16:32:16;3.60;99.40
41924;DHT22;27613;48.116;11.656;2023-02-01T16:34:42;3.70;99.40
41924;DHT22;27613;48.116;11.656;2023-02-01T16:37:29;3.70;98.60
41924;DHT22;27613;48.116;11.656;2023-02-01T16:39:57;3.70;98.70
41924;DHT22;27613;48.116;11.656;2023-02-01T16:42:23;3.70;98.30
41924;DHT22;27613;48.116;11.656;2023-02-01T16:44:48;3.70;98.60
41924;DHT22;27613;48.116;11.656;2023-02-01T16:47:20;3.80;98.10
41924;DHT22;27613;48.116;11.656;2023-02-01T16:49:46;3.80;98.20
41924;DHT22;27613;48.116;11.656;2023-02-01T16:52:23;3.80;97.60
41924;DHT22;27613;48.116;11.656;2023-02-01T16:54:49;3.70;97.90
41924;DHT22;27613;48.116;11.656;2023-02-01T16:57:17;3.80;97.50
41924;DHT22;27613;48.116;11.656;2023-02-01T16:59:43;3.80;97.30
41924;DHT22;27613;48.116;11.656;2023-02-01T17:02:13;3.80;97.40
41924;DHT22;27613;48.116;11.656;2023-02-01T17:04:39;3.80;97.30
41924;DHT22;27613;48.116;11.656;2023-02-01T17:07:06;3.80;97.00
41924;DHT22;27613;48.116;11.656;2023-02-01T17:09:35;3.90;96.60
41924;DHT22;27613;48.116;11.656;2023-02-01T17:12:01;3.80;96.80
41924;DHT22;27613;48.116;11.656;2023-02-01T17:14:29;3.90;96.00
41924;DHT22;27613;48.116;11.656;2023-02-01T17:16:54;3.90;95.40
41924;DHT22;27613;48.116;11.656;2023-02-01T17:19:22;3.90;95.40
41924;DHT22;27613;48.116;11.656;2023-02-01T17:21:50;3.90;95.00
41924;DHT22;27613;48.116;11.656;2023-02-01T17:24:19;4.00;94.80
41924;DHT22;27613;48.116;11.656;2023-02-01T17:26:45;4.00;94.30
41924;DHT22;27613;48.116;11.656;2023-02-01T17:29:11;4.10;93.80
41924;DHT22;27613;48.116;11.656;2023-02-01T17:31:47;4.10;93.70
41924;DHT22;27613;48.116;11.656;2023-02-01T17:34:13;4.10;93.70
41924;DHT22;27613;48.116;11.656;2023-02-01T17:36:44;4.10;93.70
41924;DHT22;27613;48.116;11.656;2023-02-01T17:39:10;4.10;93.40
41924;DHT22;27613;48.116;11.656;2023-02-01T17:41:56;4.10;93.40
41924;DHT22;27613;48.116;11.656;2023-02-01T17:44:21;4.10;93.10
41924;DHT22;27613;48.116;11.656;2023-02-01T17:46:47;4.20;93.00
41924;DHT22;27613;48.116;11.656;2023-02-01T17:49:12;4.10;93.10
41924;DHT22;27613;48.116;11.656;2023-02-01T17:51:38;4.20;92.90
41924;DHT22;27613;48.116;11.656;2023-02-01T17:54:11;4.20;92.90
41924;DHT22;27613;48.116;11.656;2023-02-01T17:56:36;4.20;92.60
41924;DHT22;27613;48.116;11.656;2023-02-01T17:59:02;4.20;92.80
41924;DHT22;27613;48.116;11.656;2023-02-01T18:01:27;4.20;92.90
41924;DHT22;27613;48.116;11.656;2023-02-01T18:03:53;4.20;92.60